sensor_id;sensor_type;location;lat;lon;timestamp;pressure;altitude;pressure_sealevel;temperature;humidity
57668;BME280;43499;52.366;12.912;2022-08-19T00:30:11;100642.91;;;22.11;83.29
57668;BME280;43499;52.366;12.912;2022-08-19T00:32:04;100650.13;;;22.14;82.96
57668;BME280;43499;52.366;12.912;2022-08-19T00:33:31;100659.22;;;22.19;82.20
57668;BME280;43499;52.366;12.912;2022-08-19T00:34:58;100660.22;;;22.23;80.94
57668;BME280;43499;52.366;12.912;2022-08-19T00:36:34;100677.09;;;22.20;81.69
57668;BME280;43499;52.366;12.912;2022-08-19T00:38:19;100668.00;;;22.15;81.22
57668;BME280;43499;52.366;12.912;2022-08-19T00:39:29;100665.16;;;22.10;81.42
57668;BME280;43499;52.366;12.912;2022-08-19T00:40:55;100661.53;;;22.08;81.75
57668;BME280;43499;52.366;12.912;2022-08-19T00:42:03;100661.34;;;22.02;82.03
57668;BME280;43499;52.366;12.912;2022-08-19T00:43:21;100662.34;;;22.06;82.09
57668;BME280;43499;52.366;12.912;2022-08-19T00:46:42;100666.06;;;22.11;82.53
57668;BME280;43499;52.366;12.912;2022-08-19T00:47:54;100661.75;;;22.14;82.16
57668;BME280;43499;52.366;12.912;2022-08-19T00:49:09;100653.78;;;22.17;82.42
57668;BME280;43499;52.366;12.912;2022-08-19T00:50:48;100650.81;;;22.08;82.97
57668;BME280;43499;52.366;12.912;2022-08-19T00:52:02;100642.91;;;22.11;83.41
57668;BME280;43499;52.366;12.912;2022-08-19T00:53:15;100645.75;;;22.17;82.45
57668;BME280;43499;52.366;12.912;2022-08-19T00:54:23;100639.28;;;22.11;82.71
57668;BME280;43499;52.366;12.912;2022-08-19T00:55:31;100642.22;;;22.18;82.79
57668;BME280;43499;52.366;12.912;2022-08-19T00:58:53;100634.31;;;22.22;82.12
57668;BME280;43499;52.366;12.912;2022-08-19T01:00:04;100630.34;;;22.09;82.06
57668;BME280;43499;52.366;12.912;2022-08-19T01:01:08;100634.56;;;22.02;82.39
57668;BME280;43499;52.366;12.912;2022-08-19T01:02:31;100631.69;;;21.96;83.26
57668;BME280;43499;52.366;12.912;2022-08-19T01:03:44;100621.94;;;21.98;83.13
57668;BME280;43499;52.366;12.912;2022-08-19T01:04:59;100629.97;;;21.98;83.18
57668;BME280;43499;52.366;12.912;2022-08-19T01:06:49;100628.88;;;21.93;83.00
57668;BME280;43499;52.366;12.912;2022-08-19T01:07:45;100629.38;;;21.79;82.95
57668;BME280;43499;52.366;12.912;2022-08-19T01:08:54;100638.03;;;21.72;83.53
57668;BME280;43499;52.366;12.912;2022-08-19T01:10:02;100634.66;;;21.78;83.92
57668;BME280;43499;52.366;12.912;2022-08-19T01:11:22;100651.56;;;21.77;83.40
57668;BME280;43499;52.366;12.912;2022-08-19T01:12:35;100651.81;;;21.84;83.97
57668;BME280;43499;52.366;12.912;2022-08-19T01:13:46;100653.63;;;21.85;83.54
57668;BME280;43499;52.366;12.912;2022-08-19T01:14:49;100652.91;;;21.90;83.89
57668;BME280;43499;52.366;12.912;2022-08-19T01:16:09;100653.63;;;21.85;83.94
57668;BME280;43499;52.366;12.912;2022-08-19T01:17:12;100657.47;;;21.94;83.61
57668;BME280;43499;52.366;12.912;2022-08-19T01:18:17;100647.63;;;21.93;83.46
57668;BME280;43499;52.366;12.912;2022-08-19T01:19:31;100647.72;;;21.96;83.37
57668;BME280;43499;52.366;12.912;2022-08-19T01:20:41;100640.63;;;21.96;83.19
57668;BME280;43499;52.366;12.912;2022-08-19T01:22:00;100646.19;;;22.02;83.13
57668;BME280;43499;52.366;12.912;2022-08-19T01:23:10;100638.09;;;22.01;83.17
57668;BME280;43499;52.366;12.912;2022-08-19T01:24:24;100632.91;;;22.06;82.87
57668;BME280;43499;52.366;12.912;2022-08-19T01:25:51;100633.69;;;22.03;82.86
57668;BME280;43499;52.366;12.912;2022-08-19T01:26:56;100640.72;;;21.99;83.31
57668;BME280;43499;52.366;12.912;2022-08-19T01:27:57;100646.84;;;21.95;83.68
57668;BME280;43499;52.366;12.912;2022-08-19T01:28:59;100652.09;;;21.92;83.87
57668;BME280;43499;52.366;12.912;2022-08-19T01:30:02;100658.19;;;21.88;84.35
57668;BME280;43499;52.366;12.912;2022-08-19T01:31:04;100650.97;;;21.85;84.67
57668;BME280;43499;52.366;12.912;2022-08-19T01:32:06;100660.84;;;21.88;84.50
57668;BME280;43499;52.366;12.912;2022-08-19T01:33:09;100656.34;;;21.87;84.24
57668;BME280;43499;52.366;12.912;2022-08-19T01:34:10;100662.63;;;21.87;84.57
57668;BME280;43499;52.366;12.912;2022-08-19T01:35:14;100654.59;;;21.87;84.52
57668;BME280;43499;52.366;12.912;2022-08-19T01:36:23;100656.34;;;21.87;84.72
57668;BME280;43499;52.366;12.912;2022-08-19T01:37:26;100651.16;;;21.92;84.59
57668;BME280;43499;52.366;12.912;2022-08-19T01:38:48;100647.59;;;21.91;84.41
57668;BME280;43499;52.366;12.912;2022-08-19T01:40:06;100637.59;;;21.85;84.72
57668;BME280;43499;52.366;12.912;2022-08-19T01:41:18;100636.69;;;21.85;84.77
57668;BME280;43499;52.366;12.912;2022-08-19T01:42:30;100639.38;;;21.85;84.82
57668;BME280;43499;52.366;12.912;2022-08-19T01:43:46;100633.91;;;21.82;85.50
57668;BME280;43499;52.366;12.912;2022-08-19T01:44:59;100636.34;;;21.76;85.88
57668;BME280;43499;52.366;12.912;2022-08-19T01:46:25;100627.31;;;21.72;86.66
57668;BME280;43499;52.366;12.912;2022-08-19T01:47:34;100630.81;;;21.69;87.20
57668;BME280;43499;52.366;12.912;2022-08-19T01:48:38;100625.31;;;21.65;87.22
57668;BME280;43499;52.366;12.912;2022-08-19T01:49:40;100628.88;;;21.65;87.43
57668;BME280;43499;52.366;12.912;2022-08-19T01:50:41;100625.88;;;21.57;87.44
57668;BME280;43499;52.366;12.912;2022-08-19T01:51:44;100629.44;;;21.56;87.43
57668;BME280;43499;52.366;12.912;2022-08-19T01:52:46;100621.25;;;21.52;87.30
57668;BME280;43499;52.366;12.912;2022-08-19T01:53:51;100628.16;;;21.45;87.18
57668;BME280;43499;52.366;12.912;2022-08-19T01:54:52;100632.47;;;21.41;87.39
57668;BME280;43499;52.366;12.912;2022-08-19T01:55:54;100630.44;;;21.34;87.81
57668;BME280;43499;52.366;12.912;2022-08-19T01:57:00;100641.88;;;21.30;88.23
57668;BME280;43499;52.366;12.912;2022-08-19T01:58:05;100635.41;;;21.23;88.64
57668;BME280;43499;52.366;12.912;2022-08-19T01:59:12;100631.78;;;21.21;88.96
57668;BME280;43499;52.366;12.912;2022-08-19T02:00:31;100637.84;;;21.17;89.26
57668;BME280;43499;52.366;12.912;2022-08-19T02:01:35;100630.66;;;21.15;89.59
57668;BME280;43499;52.366;12.912;2022-08-19T02:02:51;100632.47;;;21.16;89.82
57668;BME280;43499;52.366;12.912;2022-08-19T02:04:12;100645.84;;;21.16;89.87
57668;BME280;43499;52.366;12.912;2022-08-19T02:05:25;100633.16;;;21.10;89.66
57668;BME280;43499;52.366;12.912;2022-08-19T02:06:43;100642.91;;;21.09;89.64
57668;BME280;43499;52.366;12.912;2022-08-19T02:07:51;100638.38;;;21.07;89.42
57668;BME280;43499;52.366;12.912;2022-08-19T02:08:54;100646.91;;;20.96;89.64
57668;BME280;43499;52.366;12.912;2022-08-19T02:10:02;100640.81;;;21.01;90.25
57668;BME280;43499;52.366;12.912;2022-08-19T02:11:17;100646.22;;;21.02;90.05
57668;BME280;43499;52.366;12.912;2022-08-19T02:12:21;100654.06;;;20.98;90.16
57668;BME280;43499;52.366;12.912;2022-08-19T02:13:23;100644.28;;;20.98;89.84
57668;BME280;43499;52.366;12.912;2022-08-19T02:14:26;100651.31;;;20.96;90.01
57668;BME280;43499;52.366;12.912;2022-08-19T02:15:27;100656.75;;;20.98;90.10
57668;BME280;43499;52.366;12.912;2022-08-19T02:16:30;100655.91;;;20.99;90.11
57668;BME280;43499;52.366;12.912;2022-08-19T02:17:31;100649.75;;;21.01;90.38
57668;BME280;43499;52.366;12.912;2022-08-19T02:18:33;100651.50;;;21.01;90.72
57668;BME280;43499;52.366;12.912;2022-08-19T02:19:34;100649.78;;;21.03;89.93
57668;BME280;43499;52.366;12.912;2022-08-19T02:20:37;100645.97;;;20.96;90.11
57668;BME280;43499;52.366;12.912;2022-08-19T02:21:38;100648.72;;;20.98;91.01
57668;BME280;43499;52.366;12.912;2022-08-19T02:22:40;100632.69;;;20.98;90.95
57668;BME280;43499;52.366;12.912;2022-08-19T02:23:42;100635.41;;;20.99;90.75
57668;BME280;43499;52.366;12.912;2022-08-19T02:24:46;100630.88;;;20.96;90.74
57668;BME280;43499;52.366;12.912;2022-08-19T02:25:48;100621.88;;;20.94;90.82
57668;BME280;43499;52.366;12.912;2022-08-19T02:26:50;100625.41;;;20.93;91.08
57668;BME280;43499;52.366;12.912;2022-08-19T02:27:51;100612.00;;;20.92;91.39
57668;BME280;43499;52.366;12.912;2022-08-19T02:28:55;100621.72;;;20.90;91.40
57668;BME280;43499;52.366;12.912;2022-08-19T02:29:57;100610.88;;;20.85;91.46
57668;BME280;43499;52.366;12.912;2022-08-19T02:31:00;100613.41;;;20.82;91.62
57668;BME280;43499;52.366;12.912;2022-08-19T02:32:02;100612.38;;;20.78;91.75
57668;BME280;43499;52.366;12.912;2022-08-19T02:33:05;100612.25;;;20.75;91.97
57668;BME280;43499;52.366;12.912;2022-08-19T02:34:06;100618.53;;;20.76;92.11
57668;BME280;43499;52.366;12.912;2022-08-19T02:35:14;100627.44;;;20.76;92.12
57668;BME280;43499;52.366;12.912;2022-08-19T02:36:25;100631.00;;;20.77;92.41
57668;BME280;43499;52.366;12.912;2022-08-19T02:37:30;100628.22;;;20.74;92.44
57668;BME280;43499;52.366;12.912;2022-08-19T02:38:50;100628.34;;;20.77;92.51
57668;BME280;43499;52.366;12.912;2022-08-19T02:39:52;100630.13;;;20.76;92.62
57668;BME280;43499;52.366;12.912;2022-08-19T02:40:56;100619.47;;;20.78;92.43
57668;BME280;43499;52.366;12.912;2022-08-19T02:42:01;100621.31;;;20.79;92.12
57668;BME280;43499;52.366;12.912;2022-08-19T02:43:08;100630.13;;;20.76;91.92
57668;BME280;43499;52.366;12.912;2022-08-19T02:44:09;100619.22;;;20.72;92.22
57668;BME280;43499;52.366;12.912;2022-08-19T02:45:11;100612.97;;;20.71;92.63
57668;BME280;43499;52.366;12.912;2022-08-19T02:46:16;100608.59;;;20.73;92.99
57668;BME280;43499;52.366;12.912;2022-08-19T02:47:21;100598.75;;;20.72;93.01
57668;BME280;43499;52.366;12.912;2022-08-19T02:48:24;100597.16;;;20.76;92.88
57668;BME280;43499;52.366;12.912;2022-08-19T02:49:26;100588.22;;;20.75;93.09
57668;BME280;43499;52.366;12.912;2022-08-19T02:50:27;100571.09;;;20.70;93.42
57668;BME280;43499;52.366;12.912;2022-08-19T02:51:32;100566.53;;;20.68;93.84
57668;BME280;43499;52.366;12.912;2022-08-19T02:52:34;100569.16;;;20.66;93.79
57668;BME280;43499;52.366;12.912;2022-08-19T02:53:36;100559.28;;;20.63;94.43
57668;BME280;43499;52.366;12.912;2022-08-19T02:54:37;100549.53;;;20.65;93.73
57668;BME280;43499;52.366;12.912;2022-08-19T02:55:45;100547.75;;;20.64;93.98
57668;BME280;43499;52.366;12.912;2022-08-19T02:56:47;100539.72;;;20.64;93.73
57668;BME280;43499;52.366;12.912;2022-08-19T02:57:49;100547.78;;;20.66;93.66
57668;BME280;43499;52.366;12.912;2022-08-19T02:58:50;100539.50;;;20.58;94.35
57668;BME280;43499;52.366;12.912;2022-08-19T02:59:52;100538.81;;;20.64;94.20
57668;BME280;43499;52.366;12.912;2022-08-19T03:00:55;100537.91;;;20.63;93.38
57668;BME280;43499;52.366;12.912;2022-08-19T03:01:57;100535.28;;;20.65;93.39
57668;BME280;43499;52.366;12.912;2022-08-19T03:02:59;100529.91;;;20.63;93.60
57668;BME280;43499;52.366;12.912;2022-08-19T03:04:03;100542.41;;;20.64;93.29
57668;BME280;43499;52.366;12.912;2022-08-19T03:05:06;100538.69;;;20.61;93.24
57668;BME280;43499;52.366;12.912;2022-08-19T03:06:11;100541.94;;;20.52;93.58
57668;BME280;43499;52.366;12.912;2022-08-19T03:07:19;100540.03;;;20.49;93.73
57668;BME280;43499;52.366;12.912;2022-08-19T03:08:21;100543.63;;;20.50;93.79
57668;BME280;43499;52.366;12.912;2022-08-19T03:09:29;100543.56;;;20.48;93.74
57668;BME280;43499;52.366;12.912;2022-08-19T03:10:41;100544.38;;;20.46;94.11
57668;BME280;43499;52.366;12.912;2022-08-19T03:11:48;100541.66;;;20.44;94.32
57668;BME280;43499;52.366;12.912;2022-08-19T03:13:03;100543.38;;;20.44;94.85
57668;BME280;43499;52.366;12.912;2022-08-19T03:14:07;100538.97;;;20.44;95.43
57668;BME280;43499;52.366;12.912;2022-08-19T03:15:13;100546.47;;;20.55;95.00
57668;BME280;43499;52.366;12.912;2022-08-19T03:16:18;100548.31;;;20.56;94.51
57668;BME280;43499;52.366;12.912;2022-08-19T03:17:20;100550.97;;;20.56;94.36
57668;BME280;43499;52.366;12.912;2022-08-19T03:18:26;100544.72;;;20.55;94.38
57668;BME280;43499;52.366;12.912;2022-08-19T03:19:36;100556.31;;;20.56;94.41
57668;BME280;43499;52.366;12.912;2022-08-19T03:20:50;100541.09;;;20.53;94.50
57668;BME280;43499;52.366;12.912;2022-08-19T03:22:04;100552.72;;;20.55;94.92
57668;BME280;43499;52.366;12.912;2022-08-19T03:23:10;100541.25;;;20.58;94.52
57668;BME280;43499;52.366;12.912;2022-08-19T03:24:16;100545.84;;;20.62;94.28
57668;BME280;43499;52.366;12.912;2022-08-19T03:25:36;100550.34;;;20.63;94.08
57668;BME280;43499;52.366;12.912;2022-08-19T03:28:28;100528.97;;;20.63;93.34
57668;BME280;43499;52.366;12.912;2022-08-19T03:29:36;100521.88;;;20.63;93.31
57668;BME280;43499;52.366;12.912;2022-08-19T03:30:54;100531.72;;;20.64;93.02
57668;BME280;43499;52.366;12.912;2022-08-19T03:32:10;100528.75;;;20.57;92.93
57668;BME280;43499;52.366;12.912;2022-08-19T03:33:40;100530.28;;;20.50;93.20
57668;BME280;43499;52.366;12.912;2022-08-19T03:34:54;100521.09;;;20.42;92.98
57668;BME280;43499;52.366;12.912;2022-08-19T03:36:15;100521.69;;;20.34;93.11
57668;BME280;43499;52.366;12.912;2022-08-19T03:37:35;100515.63;;;20.39;93.42
57668;BME280;43499;52.366;12.912;2022-08-19T03:38:50;100509.09;;;20.30;93.28
57668;BME280;43499;52.366;12.912;2022-08-19T03:40:09;100506.44;;;20.30;93.39
57668;BME280;43499;52.366;12.912;2022-08-19T03:41:37;100517.19;;;20.33;93.72
57668;BME280;43499;52.366;12.912;2022-08-19T03:43:01;100514.53;;;20.33;93.77
57668;BME280;43499;52.366;12.912;2022-08-19T03:44:28;100514.22;;;20.26;94.36
57668;BME280;43499;52.366;12.912;2022-08-19T03:45:33;100505.47;;;20.28;93.92
57668;BME280;43499;52.366;12.912;2022-08-19T03:46:40;100506.31;;;20.27;93.29
57668;BME280;43499;52.366;12.912;2022-08-19T03:48:02;100514.44;;;20.30;94.09
57668;BME280;43499;52.366;12.912;2022-08-19T03:49:13;100508.16;;;20.30;94.08
57668;BME280;43499;52.366;12.912;2022-08-19T03:50:40;100512.66;;;20.31;93.97
57668;BME280;43499;52.366;12.912;2022-08-19T03:52:05;100521.81;;;20.38;93.74
57668;BME280;43499;52.366;12.912;2022-08-19T03:53:10;100510.66;;;20.25;93.95
57668;BME280;43499;52.366;12.912;2022-08-19T03:54:31;100524.31;;;20.33;94.30
57668;BME280;43499;52.366;12.912;2022-08-19T03:55:54;100520.00;;;20.37;93.42
57668;BME280;43499;52.366;12.912;2022-08-19T03:57:05;100523.69;;;20.40;93.50
57668;BME280;43499;52.366;12.912;2022-08-19T03:58:18;100515.63;;;20.39;93.30
57668;BME280;43499;52.366;12.912;2022-08-19T03:59:36;100507.66;;;20.40;93.41
57668;BME280;43499;52.366;12.912;2022-08-19T04:00:53;100517.53;;;20.43;92.75
57668;BME280;43499;52.366;12.912;2022-08-19T04:03:59;100516.81;;;20.47;92.88
57668;BME280;43499;52.366;12.912;2022-08-19T04:05:10;100515.56;;;20.37;93.17
57668;BME280;43499;52.366;12.912;2022-08-19T04:06:37;100519.28;;;20.41;93.44
57668;BME280;43499;52.366;12.912;2022-08-19T04:07:55;100512.44;;;20.49;93.43
57668;BME280;43499;52.366;12.912;2022-08-19T04:09:23;100509.78;;;20.49;92.99
57668;BME280;43499;52.366;12.912;2022-08-19T04:10:28;100508.13;;;20.53;92.72
57668;BME280;43499;52.366;12.912;2022-08-19T04:13:38;100509.44;;;20.64;91.90
57668;BME280;43499;52.366;12.912;2022-08-19T04:15:32;100509.69;;;20.70;91.96
57668;BME280;43499;52.366;12.912;2022-08-19T04:16:59;100514.03;;;20.68;91.78
57668;BME280;43499;52.366;12.912;2022-08-19T04:18:18;100523.97;;;20.72;91.58
57668;BME280;43499;52.366;12.912;2022-08-19T04:19:59;100521.38;;;20.74;91.66
57668;BME280;43499;52.366;12.912;2022-08-19T04:23:06;100522.91;;;20.67;91.40
57668;BME280;43499;52.366;12.912;2022-08-19T04:24:13;100523.13;;;20.73;91.54
57668;BME280;43499;52.366;12.912;2022-08-19T04:25:39;100528.38;;;20.70;91.56
57668;BME280;43499;52.366;12.912;2022-08-19T04:29:05;100544.59;;;20.75;91.65
57668;BME280;43499;52.366;12.912;2022-08-19T04:30:39;100549.00;;;20.74;91.36
57668;BME280;43499;52.366;12.912;2022-08-19T04:31:56;100555.38;;;20.78;91.20
57668;BME280;43499;52.366;12.912;2022-08-19T04:33:13;100555.31;;;20.76;91.11
57668;BME280;43499;52.366;12.912;2022-08-19T04:34:36;100563.50;;;20.81;91.01
57668;BME280;43499;52.366;12.912;2022-08-19T04:35:50;100560.72;;;20.78;91.26
57668;BME280;43499;52.366;12.912;2022-08-19T04:37:10;100557.31;;;20.82;91.07
57668;BME280;43499;52.366;12.912;2022-08-19T04:38:40;100554.59;;;20.80;90.70
57668;BME280;43499;52.366;12.912;2022-08-19T04:39:50;100548.19;;;20.77;90.52
57668;BME280;43499;52.366;12.912;2022-08-19T04:41:25;100551.94;;;20.80;90.58
57668;BME280;43499;52.366;12.912;2022-08-19T04:42:57;100550.75;;;20.74;90.52
57668;BME280;43499;52.366;12.912;2022-08-19T04:46:07;100555.56;;;20.60;90.97
57668;BME280;43499;52.366;12.912;2022-08-19T04:47:37;100555.94;;;20.69;91.43
57668;BME280;43499;52.366;12.912;2022-08-19T04:48:51;100561.19;;;20.68;91.12
57668;BME280;43499;52.366;12.912;2022-08-19T04:50:24;100554.38;;;20.52;90.95
57668;BME280;43499;52.366;12.912;2022-08-19T04:51:54;100551.94;;;20.58;91.83
57668;BME280;43499;52.366;12.912;2022-08-19T04:54:02;100559.28;;;20.63;92.04
57668;BME280;43499;52.366;12.912;2022-08-19T04:54:59;100554.84;;;20.64;91.71
57668;BME280;43499;52.366;12.912;2022-08-19T04:56:06;100557.63;;;20.67;91.50
57668;BME280;43499;52.366;12.912;2022-08-19T04:57:29;100565.84;;;20.73;91.69
57668;BME280;43499;52.366;12.912;2022-08-19T04:58:53;100557.75;;;20.70;91.00
57668;BME280;43499;52.366;12.912;2022-08-19T05:00:08;100558.63;;;20.71;91.11
57668;BME280;43499;52.366;12.912;2022-08-19T05:01:46;100567.78;;;20.76;91.32
57668;BME280;43499;52.366;12.912;2022-08-19T05:02:59;100564.22;;;20.77;91.47
57668;BME280;43499;52.366;12.912;2022-08-19T05:04:11;100567.16;;;20.83;91.36
57668;BME280;43499;52.366;12.912;2022-08-19T05:05:28;100558.28;;;20.84;91.31
57668;BME280;43499;52.366;12.912;2022-08-19T05:06:37;100568.28;;;20.90;92.52
57668;BME280;43499;52.366;12.912;2022-08-19T05:08:01;100564.75;;;20.91;90.91
57668;BME280;43499;52.366;12.912;2022-08-19T05:09:07;100566.63;;;20.93;90.58
57668;BME280;43499;52.366;12.912;2022-08-19T05:10:34;100565.03;;;20.99;90.31
57668;BME280;43499;52.366;12.912;2022-08-19T05:11:41;100565.13;;;21.02;90.18
57668;BME280;43499;52.366;12.912;2022-08-19T05:12:59;100560.81;;;21.05;90.12
57668;BME280;43499;52.366;12.912;2022-08-19T05:14:13;100570.63;;;21.06;89.96
57668;BME280;43499;52.366;12.912;2022-08-19T05:15:51;100566.06;;;21.02;89.96
57668;BME280;43499;52.366;12.912;2022-08-19T05:18:37;100572.09;;;20.96;90.84
57668;BME280;43499;52.366;12.912;2022-08-19T05:20:05;100572.13;;;20.98;91.17
57668;BME280;43499;52.366;12.912;2022-08-19T05:21:38;100572.25;;;21.01;91.02
57668;BME280;43499;52.366;12.912;2022-08-19T05:23:07;100583.09;;;21.06;90.76
57668;BME280;43499;52.366;12.912;2022-08-19T05:24:46;100576.75;;;21.02;91.16
57668;BME280;43499;52.366;12.912;2022-08-19T05:26:22;100586.66;;;21.06;91.13
57668;BME280;43499;52.366;12.912;2022-08-19T05:27:33;100582.69;;;20.95;91.54
57668;BME280;43499;52.366;12.912;2022-08-19T05:29:20;100589.13;;;21.00;91.59
57668;BME280;43499;52.366;12.912;2022-08-19T05:30:37;100594.59;;;21.03;91.57
57668;BME280;43499;52.366;12.912;2022-08-19T05:32:00;100587.53;;;21.05;91.83
57668;BME280;43499;52.366;12.912;2022-08-19T05:33:44;100603.91;;;21.15;90.77
57668;BME280;43499;52.366;12.912;2022-08-19T05:35:25;100615.78;;;21.23;90.55
57668;BME280;43499;52.366;12.912;2022-08-19T05:36:58;100609.59;;;21.24;90.65
57668;BME280;43499;52.366;12.912;2022-08-19T05:38:09;100613.41;;;21.31;90.13
57668;BME280;43499;52.366;12.912;2022-08-19T05:39:39;100612.63;;;21.35;89.40
57668;BME280;43499;52.366;12.912;2022-08-19T05:40:52;100602.97;;;21.38;89.20
57668;BME280;43499;52.366;12.912;2022-08-19T05:42:11;100608.63;;;21.48;89.12
57668;BME280;43499;52.366;12.912;2022-08-19T05:43:23;100616.00;;;21.55;88.57
57668;BME280;43499;52.366;12.912;2022-08-19T05:44:31;100619.84;;;21.62;88.20
57668;BME280;43499;52.366;12.912;2022-08-19T05:46:02;100611.16;;;21.69;87.68
57668;BME280;43499;52.366;12.912;2022-08-19T05:47:18;100609.38;;;21.68;87.12
57668;BME280;43499;52.366;12.912;2022-08-19T05:48:35;100611.25;;;21.72;87.23
57668;BME280;43499;52.366;12.912;2022-08-19T05:49:58;100610.25;;;21.68;87.04
57668;BME280;43499;52.366;12.912;2022-08-19T05:51:17;100607.88;;;21.78;86.96
57668;BME280;43499;52.366;12.912;2022-08-19T05:52:36;100611.69;;;21.84;86.79
57668;BME280;43499;52.366;12.912;2022-08-19T05:54:10;100592.13;;;21.87;86.08
57668;BME280;43499;52.366;12.912;2022-08-19T05:55:29;100587.84;;;21.92;86.11
57668;BME280;43499;52.366;12.912;2022-08-19T05:56:47;100589.78;;;21.96;86.11
57668;BME280;43499;52.366;12.912;2022-08-19T05:58:35;100585.72;;;22.09;85.89
57668;BME280;43499;52.366;12.912;2022-08-19T06:00:02;100590.16;;;22.38;85.23
57668;BME280;43499;52.366;12.912;2022-08-19T06:01:33;100560.06;;;22.45;84.53
57668;BME280;43499;52.366;12.912;2022-08-19T06:02:50;100565.84;;;22.59;83.96
57668;BME280;43499;52.366;12.912;2022-08-19T06:04:41;100565.28;;;22.71;82.56
57668;BME280;43499;52.366;12.912;2022-08-19T06:06:00;100571.69;;;22.76;82.99
57668;BME280;43499;52.366;12.912;2022-08-19T06:08:38;100568.31;;;22.83;82.63
57668;BME280;43499;52.366;12.912;2022-08-19T06:10:09;100580.25;;;22.94;81.92
57668;BME280;43499;52.366;12.912;2022-08-19T06:11:48;100576.09;;;23.06;81.72
57668;BME280;43499;52.366;12.912;2022-08-19T06:13:06;100580.84;;;23.16;81.08
57668;BME280;43499;52.366;12.912;2022-08-19T06:14:37;100583.69;;;23.21;80.87
57668;BME280;43499;52.366;12.912;2022-08-19T06:18:07;100584.75;;;23.27;80.44
57668;BME280;43499;52.366;12.912;2022-08-19T06:19:51;100583.69;;;23.21;80.09
57668;BME280;43499;52.366;12.912;2022-08-19T06:22:50;100592.53;;;23.18;80.63
57668;BME280;43499;52.366;12.912;2022-08-19T06:24:16;100596.28;;;23.23;80.28
57668;BME280;43499;52.366;12.912;2022-08-19T06:25:29;100589.16;;;23.25;80.80
57668;BME280;43499;52.366;12.912;2022-08-19T06:27:00;100597.66;;;23.10;80.54
57668;BME280;43499;52.366;12.912;2022-08-19T06:28:35;100587.75;;;23.06;80.93
57668;BME280;43499;52.366;12.912;2022-08-19T06:29:40;100595.00;;;23.10;80.37
57668;BME280;43499;52.366;12.912;2022-08-19T06:31:08;100599.59;;;23.15;80.30
57668;BME280;43499;52.366;12.912;2022-08-19T06:32:22;100596.94;;;23.16;80.05
57668;BME280;43499;52.366;12.912;2022-08-19T06:34:10;100587.22;;;23.20;79.69
57668;BME280;43499;52.366;12.912;2022-08-19T06:35:32;100585.56;;;23.23;79.56
57668;BME280;43499;52.366;12.912;2022-08-19T06:43:29;100593.63;;;23.23;79.88
57668;BME280;43499;52.366;12.912;2022-08-19T06:44:02;100592.91;;;23.31;79.66
57668;BME280;43499;52.366;12.912;2022-08-19T06:45:22;100587.81;;;23.41;79.18
57668;BME280;43499;52.366;12.912;2022-08-19T06:46:47;100591.66;;;23.51;78.17
57668;BME280;43499;52.366;12.912;2022-08-19T06:48:51;100587.66;;;23.70;77.76
57668;BME280;43499;52.366;12.912;2022-08-19T07:02:37;100593.72;;;24.76;73.58
57668;BME280;43499;52.366;12.912;2022-08-19T07:03:50;100602.81;;;24.83;73.30
57668;BME280;43499;52.366;12.912;2022-08-19T07:05:00;100606.19;;;24.73;73.21
57668;BME280;43499;52.366;12.912;2022-08-19T07:06:24;100623.91;;;24.64;73.41
57668;BME280;43499;52.366;12.912;2022-08-19T07:07:29;100623.72;;;24.55;74.23
57668;BME280;43499;52.366;12.912;2022-08-19T07:08:48;100626.13;;;24.43;74.97
57668;BME280;43499;52.366;12.912;2022-08-19T07:10:09;100625.53;;;24.18;75.63
57668;BME280;43499;52.366;12.912;2022-08-19T07:11:27;100622.47;;;24.02;75.70
57668;BME280;43499;52.366;12.912;2022-08-19T07:12:35;100625.25;;;24.06;76.04
57668;BME280;43499;52.366;12.912;2022-08-19T07:14:01;100628.91;;;24.09;76.20
57668;BME280;43499;52.366;12.912;2022-08-19T07:15:19;100626.09;;;24.03;76.50
57668;BME280;43499;52.366;12.912;2022-08-19T07:16:32;100628.06;;;24.12;76.19
57668;BME280;43499;52.366;12.912;2022-08-19T07:17:46;100626.59;;;24.25;75.84
57668;BME280;43499;52.366;12.912;2022-08-19T07:18:48;100625.00;;;24.34;75.58
57668;BME280;43499;52.366;12.912;2022-08-19T07:20:07;100623.38;;;24.41;75.29
57668;BME280;43499;52.366;12.912;2022-08-19T07:21:18;100629.56;;;24.37;75.03
57668;BME280;43499;52.366;12.912;2022-08-19T07:22:44;100624.03;;;24.31;75.20
57668;BME280;43499;52.366;12.912;2022-08-19T07:24:19;100621.34;;;24.29;75.02
57668;BME280;43499;52.366;12.912;2022-08-19T07:25:31;100632.97;;;24.30;75.07
57668;BME280;43499;52.366;12.912;2022-08-19T07:26:37;100631.88;;;24.20;75.46
57668;BME280;43499;52.366;12.912;2022-08-19T07:27:59;100634.19;;;24.06;75.68
57668;BME280;43499;52.366;12.912;2022-08-19T07:29:07;100637.16;;;24.17;75.56
57668;BME280;43499;52.366;12.912;2022-08-19T07:30:18;100640.03;;;24.25;75.77
57668;BME280;43499;52.366;12.912;2022-08-19T07:31:26;100634.88;;;24.34;76.00
57668;BME280;43499;52.366;12.912;2022-08-19T07:32:33;100638.22;;;24.24;75.89
57668;BME280;43499;52.366;12.912;2022-08-19T07:33:55;100640.16;;;24.31;75.57
57668;BME280;43499;52.366;12.912;2022-08-19T07:35:00;100638.53;;;24.38;75.40
57668;BME280;43499;52.366;12.912;2022-08-19T07:36:07;100643.81;;;24.34;75.01
57668;BME280;43499;52.366;12.912;2022-08-19T07:37:33;100645.44;;;24.26;74.95
57668;BME280;43499;52.366;12.912;2022-08-19T07:38:53;100649.66;;;24.16;75.14